sensor_id;sensor_type;location;lat;lon;timestamp;pressure;altitude;pressure_sealevel;temperature
15575;BMP180;7888;46.748;8.102;2023-04-03T00:00:26;94250.00;;;13.40
15575;BMP180;7888;46.748;8.102;2023-04-03T00:02:51;94253.00;;;13.40
15575;BMP180;7888;46.748;8.102;2023-04-03T00:05:17;94254.00;;;13.40
15575;BMP180;7888;46.748;8.102;2023-04-03T00:07:43;94256.00;;;13.30
15575;BMP180;7888;46.748;8.102;2023-04-03T00:10:09;94257.00;;;13.30
15575;BMP180;7888;46.748;8.102;2023-04-03T00:12:35;94206.00;;;13.30
15575;BMP180;7888;46.748;8.102;2023-04-03T00:15:01;94255.00;;;13.30
15575;BMP180;7888;46.748;8.102;2023-04-03T00:17:27;94246.00;;;13.30
15575;BMP180;7888;46.748;8.102;2023-04-03T00:19:53;94250.00;;;13.30
15575;BMP180;7888;46.748;8.102;2023-04-03T00:22:18;94248.00;;;13.30
15575;BMP180;7888;46.748;8.102;2023-04-03T00:24:44;94244.00;;;13.30
15575;BMP180;7888;46.748;8.102;2023-04-03T00:27:10;94244.00;;;13.30
15575;BMP180;7888;46.748;8.102;2023-04-03T00:29:36;94231.00;;;13.30
15575;BMP180;7888;46.748;8.102;2023-04-03T00:32:02;94233.00;;;13.30
15575;BMP180;7888;46.748;8.102;2023-04-03T00:34:28;94237.00;;;13.30
15575;BMP180;7888;46.748;8.102;2023-04-03T00:36:54;94240.00;;;13.30
15575;BMP180;7888;46.748;8.102;2023-04-03T00:39:20;94242.00;;;13.30
15575;BMP180;7888;46.748;8.102;2023-04-03T00:41:46;94233.00;;;13.30
15575;BMP180;7888;46.748;8.102;2023-04-03T00:44:21;94225.00;;;13.30
15575;BMP180;7888;46.748;8.102;2023-04-03T00:46:47;94225.00;;;13.30
15575;BMP180;7888;46.748;8.102;2023-04-03T00:49:13;94229.00;;;13.30
15575;BMP180;7888;46.748;8.102;2023-04-03T00:51:39;94229.00;;;13.30
15575;BMP180;7888;46.748;8.102;2023-04-03T00:54:08;94201.00;;;13.30
15575;BMP180;7888;46.748;8.102;2023-04-03T00:56:35;94218.00;;;13.30
15575;BMP180;7888;46.748;8.102;2023-04-03T00:59:08;94211.00;;;13.20
15575;BMP180;7888;46.748;8.102;2023-04-03T01:01:37;94214.00;;;13.30
15575;BMP180;7888;46.748;8.102;2023-04-03T01:04:04;94213.00;;;13.30
15575;BMP180;7888;46.748;8.102;2023-04-03T01:06:36;94211.00;;;13.30
15575;BMP180;7888;46.748;8.102;2023-04-03T01:09:03;94214.00;;;13.20
15575;BMP180;7888;46.748;8.102;2023-04-03T01:11:30;94214.00;;;13.30
15575;BMP180;7888;46.748;8.102;2023-04-03T01:13:56;94203.00;;;13.30
15575;BMP180;7888;46.748;8.102;2023-04-03T01:16:22;94187.00;;;13.20
15575;BMP180;7888;46.748;8.102;2023-04-03T01:18:48;94210.00;;;13.20
15575;BMP180;7888;46.748;8.102;2023-04-03T01:21:55;94201.00;;;13.10
15575;BMP180;7888;46.748;8.102;2023-04-03T01:24:35;94194.00;;;13.10
15575;BMP180;7888;46.748;8.102;2023-04-03T01:27:05;94212.00;;;13.10
15575;BMP180;7888;46.748;8.102;2023-04-03T01:29:32;94203.00;;;13.10
15575;BMP180;7888;46.748;8.102;2023-04-03T01:32:00;94199.00;;;13.10
15575;BMP180;7888;46.748;8.102;2023-04-03T01:34:28;94214.00;;;13.10
15575;BMP180;7888;46.748;8.102;2023-04-03T01:36:54;94202.00;;;13.10
15575;BMP180;7888;46.748;8.102;2023-04-03T01:39:20;94205.00;;;13.10
15575;BMP180;7888;46.748;8.102;2023-04-03T01:41:47;94203.00;;;13.10
15575;BMP180;7888;46.748;8.102;2023-04-03T01:44:13;94209.00;;;13.10
15575;BMP180;7888;46.748;8.102;2023-04-03T01:46:39;94206.00;;;13.00
15575;BMP180;7888;46.748;8.102;2023-04-03T01:49:05;94204.00;;;13.10
15575;BMP180;7888;46.748;8.102;2023-04-03T01:51:31;94199.00;;;13.00
15575;BMP180;7888;46.748;8.102;2023-04-03T01:53:57;94206.00;;;13.00
15575;BMP180;7888;46.748;8.102;2023-04-03T01:56:23;94202.00;;;12.90
15575;BMP180;7888;46.748;8.102;2023-04-03T01:58:48;94197.00;;;12.90
15575;BMP180;7888;46.748;8.102;2023-04-03T02:01:16;94200.00;;;12.80
15575;BMP180;7888;46.748;8.102;2023-04-03T02:03:42;94190.00;;;12.80
15575;BMP180;7888;46.748;8.102;2023-04-03T02:06:08;94159.00;;;12.70
15575;BMP180;7888;46.748;8.102;2023-04-03T02:08:34;94190.00;;;12.80
15575;BMP180;7888;46.748;8.102;2023-04-03T02:11:00;94185.00;;;12.70
15575;BMP180;7888;46.748;8.102;2023-04-03T02:13:25;94177.00;;;12.70
15575;BMP180;7888;46.748;8.102;2023-04-03T02:15:51;94188.00;;;12.70
15575;BMP180;7888;46.748;8.102;2023-04-03T02:18:17;94179.00;;;12.70
15575;BMP180;7888;46.748;8.102;2023-04-03T02:20:43;94171.00;;;12.70
15575;BMP180;7888;46.748;8.102;2023-04-03T02:23:10;94177.00;;;12.70
15575;BMP180;7888;46.748;8.102;2023-04-03T02:25:36;94179.00;;;12.70
15575;BMP180;7888;46.748;8.102;2023-04-03T02:28:02;94186.00;;;12.70
15575;BMP180;7888;46.748;8.102;2023-04-03T02:30:28;94184.00;;;12.70
15575;BMP180;7888;46.748;8.102;2023-04-03T02:32:53;94172.00;;;12.70
15575;BMP180;7888;46.748;8.102;2023-04-03T02:35:20;94177.00;;;12.60
15575;BMP180;7888;46.748;8.102;2023-04-03T02:37:46;94176.00;;;12.60
15575;BMP180;7888;46.748;8.102;2023-04-03T02:40:12;94173.00;;;12.50
15575;BMP180;7888;46.748;8.102;2023-04-03T02:42:38;94176.00;;;12.50
15575;BMP180;7888;46.748;8.102;2023-04-03T02:45:04;94176.00;;;12.50
15575;BMP180;7888;46.748;8.102;2023-04-03T02:47:30;94171.00;;;12.50
15575;BMP180;7888;46.748;8.102;2023-04-03T02:49:56;94172.00;;;12.50
15575;BMP180;7888;46.748;8.102;2023-04-03T02:52:22;94178.00;;;12.50
15575;BMP180;7888;46.748;8.102;2023-04-03T02:54:48;94179.00;;;12.50
15575;BMP180;7888;46.748;8.102;2023-04-03T02:57:14;94179.00;;;12.50
15575;BMP180;7888;46.748;8.102;2023-04-03T02:59:40;94170.00;;;12.40
15575;BMP180;7888;46.748;8.102;2023-04-03T03:02:10;94180.00;;;12.30
15575;BMP180;7888;46.748;8.102;2023-04-03T03:04:37;94177.00;;;12.30
15575;BMP180;7888;46.748;8.102;2023-04-03T03:07:03;94164.00;;;12.30
15575;BMP180;7888;46.748;8.102;2023-04-03T03:09:29;94173.00;;;12.20
15575;BMP180;7888;46.748;8.102;2023-04-03T03:11:56;94152.00;;;12.20
15575;BMP180;7888;46.748;8.102;2023-04-03T03:14:23;94183.00;;;12.20
15575;BMP180;7888;46.748;8.102;2023-04-03T03:16:49;94180.00;;;12.20
15575;BMP180;7888;46.748;8.102;2023-04-03T03:19:15;94179.00;;;12.10
15575;BMP180;7888;46.748;8.102;2023-04-03T03:21:40;94163.00;;;12.10
15575;BMP180;7888;46.748;8.102;2023-04-03T03:24:07;94173.00;;;12.10
15575;BMP180;7888;46.748;8.102;2023-04-03T03:26:32;94160.00;;;12.00
15575;BMP180;7888;46.748;8.102;2023-04-03T03:28:58;94173.00;;;11.90
15575;BMP180;7888;46.748;8.102;2023-04-03T03:31:24;94179.00;;;11.90
15575;BMP180;7888;46.748;8.102;2023-04-03T03:33:50;94169.00;;;11.80
15575;BMP180;7888;46.748;8.102;2023-04-03T03:36:16;94149.00;;;11.80
15575;BMP180;7888;46.748;8.102;2023-04-03T03:38:41;94168.00;;;11.80
15575;BMP180;7888;46.748;8.102;2023-04-03T03:41:07;94177.00;;;11.80
15575;BMP180;7888;46.748;8.102;2023-04-03T03:43:33;94169.00;;;11.80
15575;BMP180;7888;46.748;8.102;2023-04-03T03:45:59;94173.00;;;11.80
15575;BMP180;7888;46.748;8.102;2023-04-03T03:48:25;94183.00;;;11.80
15575;BMP180;7888;46.748;8.102;2023-04-03T03:50:51;94179.00;;;11.90
15575;BMP180;7888;46.748;8.102;2023-04-03T03:53:17;94184.00;;;12.00
15575;BMP180;7888;46.748;8.102;2023-04-03T03:55:43;94189.00;;;11.90
15575;BMP180;7888;46.748;8.102;2023-04-03T03:58:09;94181.00;;;12.00
15575;BMP180;7888;46.748;8.102;2023-04-03T04:00:35;94183.00;;;12.00
15575;BMP180;7888;46.748;8.102;2023-04-03T04:03:01;94163.00;;;12.00
15575;BMP180;7888;46.748;8.102;2023-04-03T04:05:26;94170.00;;;12.10
15575;BMP180;7888;46.748;8.102;2023-04-03T04:07:52;94182.00;;;12.10
15575;BMP180;7888;46.748;8.102;2023-04-03T04:10:18;94187.00;;;12.10
15575;BMP180;7888;46.748;8.102;2023-04-03T04:12:44;94187.00;;;12.10
15575;BMP180;7888;46.748;8.102;2023-04-03T04:15:13;94181.00;;;12.10
15575;BMP180;7888;46.748;8.102;2023-04-03T04:17:39;94194.00;;;12.10
15575;BMP180;7888;46.748;8.102;2023-04-03T04:20:05;94183.00;;;12.10
15575;BMP180;7888;46.748;8.102;2023-04-03T04:22:31;94191.00;;;12.10
15575;BMP180;7888;46.748;8.102;2023-04-03T04:24:57;94181.00;;;12.10
15575;BMP180;7888;46.748;8.102;2023-04-03T04:27:23;94183.00;;;12.10
15575;BMP180;7888;46.748;8.102;2023-04-03T04:29:48;94180.00;;;12.10
15575;BMP180;7888;46.748;8.102;2023-04-03T04:32:14;94179.00;;;12.10
15575;BMP180;7888;46.748;8.102;2023-04-03T04:34:40;94168.00;;;12.00
15575;BMP180;7888;46.748;8.102;2023-04-03T04:37:06;94176.00;;;12.00
15575;BMP180;7888;46.748;8.102;2023-04-03T04:39:31;94166.00;;;12.00
15575;BMP180;7888;46.748;8.102;2023-04-03T04:41:57;94164.00;;;12.00
15575;BMP180;7888;46.748;8.102;2023-04-03T04:44:23;94170.00;;;12.00
15575;BMP180;7888;46.748;8.102;2023-04-03T04:46:49;94170.00;;;12.00
15575;BMP180;7888;46.748;8.102;2023-04-03T04:49:14;94176.00;;;12.00
15575;BMP180;7888;46.748;8.102;2023-04-03T04:51:40;94168.00;;;12.00
15575;BMP180;7888;46.748;8.102;2023-04-03T04:54:06;94187.00;;;12.00
15575;BMP180;7888;46.748;8.102;2023-04-03T04:56:32;94149.00;;;11.90
15575;BMP180;7888;46.748;8.102;2023-04-03T04:58:57;94126.00;;;12.00
15575;BMP180;7888;46.748;8.102;2023-04-03T05:01:23;94188.00;;;11.90
15575;BMP180;7888;46.748;8.102;2023-04-03T05:03:49;94182.00;;;11.90
15575;BMP180;7888;46.748;8.102;2023-04-03T05:06:15;94169.00;;;11.80
15575;BMP180;7888;46.748;8.102;2023-04-03T05:08:41;94190.00;;;11.80
15575;BMP180;7888;46.748;8.102;2023-04-03T05:11:07;94187.00;;;11.70
15575;BMP180;7888;46.748;8.102;2023-04-03T05:13:32;94187.00;;;11.70
15575;BMP180;7888;46.748;8.102;2023-04-03T05:15:58;94183.00;;;11.70
15575;BMP180;7888;46.748;8.102;2023-04-03T05:18:25;94187.00;;;11.70
15575;BMP180;7888;46.748;8.102;2023-04-03T05:20:51;94187.00;;;11.60
15575;BMP180;7888;46.748;8.102;2023-04-03T05:23:17;94192.00;;;11.70
15575;BMP180;7888;46.748;8.102;2023-04-03T05:25:43;94192.00;;;11.70
15575;BMP180;7888;46.748;8.102;2023-04-03T05:28:11;94190.00;;;11.70
15575;BMP180;7888;46.748;8.102;2023-04-03T05:30:37;94193.00;;;11.70
15575;BMP180;7888;46.748;8.102;2023-04-03T05:33:03;94192.00;;;11.70
15575;BMP180;7888;46.748;8.102;2023-04-03T05:35:29;94199.00;;;11.60
15575;BMP180;7888;46.748;8.102;2023-04-03T05:37:55;94186.00;;;11.60
15575;BMP180;7888;46.748;8.102;2023-04-03T05:40:21;94195.00;;;11.60
15575;BMP180;7888;46.748;8.102;2023-04-03T05:42:46;94192.00;;;11.50
15575;BMP180;7888;46.748;8.102;2023-04-03T05:45:12;94185.00;;;11.50
15575;BMP180;7888;46.748;8.102;2023-04-03T05:47:38;94195.00;;;11.50
15575;BMP180;7888;46.748;8.102;2023-04-03T05:50:05;94183.00;;;11.50
15575;BMP180;7888;46.748;8.102;2023-04-03T05:52:36;94199.00;;;11.50
15575;BMP180;7888;46.748;8.102;2023-04-03T05:55:03;94200.00;;;11.50
15575;BMP180;7888;46.748;8.102;2023-04-03T05:57:28;94198.00;;;11.50
15575;BMP180;7888;46.748;8.102;2023-04-03T05:59:55;94190.00;;;11.50
15575;BMP180;7888;46.748;8.102;2023-04-03T06:02:23;94195.00;;;11.50
15575;BMP180;7888;46.748;8.102;2023-04-03T06:04:51;94169.00;;;11.40
15575;BMP180;7888;46.748;8.102;2023-04-03T06:07:23;94202.00;;;11.40
15575;BMP180;7888;46.748;8.102;2023-04-03T06:09:50;94200.00;;;11.40
15575;BMP180;7888;46.748;8.102;2023-04-03T06:12:17;94208.00;;;11.40
15575;BMP180;7888;46.748;8.102;2023-04-03T06:14:43;94201.00;;;11.50
15575;BMP180;7888;46.748;8.102;2023-04-03T06:17:10;94205.00;;;11.50
15575;BMP180;7888;46.748;8.102;2023-04-03T06:19:36;94192.00;;;11.50
15575;BMP180;7888;46.748;8.102;2023-04-03T06:22:03;94190.00;;;11.50
15575;BMP180;7888;46.748;8.102;2023-04-03T06:24:30;94180.00;;;11.50
15575;BMP180;7888;46.748;8.102;2023-04-03T06:26:56;94190.00;;;11.50
15575;BMP180;7888;46.748;8.102;2023-04-03T06:29:23;94192.00;;;11.50
15575;BMP180;7888;46.748;8.102;2023-04-03T06:31:51;94171.00;;;11.60
15575;BMP180;7888;46.748;8.102;2023-04-03T06:34:17;94193.00;;;11.60
15575;BMP180;7888;46.748;8.102;2023-04-03T06:36:45;94177.00;;;11.60
15575;BMP180;7888;46.748;8.102;2023-04-03T06:39:18;94199.00;;;11.40
15575;BMP180;7888;46.748;8.102;2023-04-03T06:41:51;94199.00;;;11.50
15575;BMP180;7888;46.748;8.102;2023-04-03T06:44:17;94195.00;;;11.40
15575;BMP180;7888;46.748;8.102;2023-04-03T06:46:44;94188.00;;;11.40
15575;BMP180;7888;46.748;8.102;2023-04-03T07:20:19;94204.00;;;10.70
15575;BMP180;7888;46.748;8.102;2023-04-03T07:22:45;94196.00;;;10.80
15575;BMP180;7888;46.748;8.102;2023-04-03T07:25:11;94207.00;;;10.80
15575;BMP180;7888;46.748;8.102;2023-04-03T07:27:38;94209.00;;;10.70
15575;BMP180;7888;46.748;8.102;2023-04-03T07:30:04;94224.00;;;10.70
15575;BMP180;7888;46.748;8.102;2023-04-03T07:32:32;94227.00;;;10.80
15575;BMP180;7888;46.748;8.102;2023-04-03T07:34:58;94223.00;;;10.80
15575;BMP180;7888;46.748;8.102;2023-04-03T07:37:24;94218.00;;;10.80
15575;BMP180;7888;46.748;8.102;2023-04-03T07:39:50;94223.00;;;10.90
15575;BMP180;7888;46.748;8.102;2023-04-03T07:42:16;94229.00;;;11.00
15575;BMP180;7888;46.748;8.102;2023-04-03T07:44:42;94202.00;;;11.10
15575;BMP180;7888;46.748;8.102;2023-04-03T07:47:08;94233.00;;;11.20
15575;BMP180;7888;46.748;8.102;2023-04-03T07:49:34;94216.00;;;11.20
15575;BMP180;7888;46.748;8.102;2023-04-03T07:52:03;94232.00;;;11.30
15575;BMP180;7888;46.748;8.102;2023-04-03T07:54:29;94229.00;;;11.30
15575;BMP180;7888;46.748;8.102;2023-04-03T07:56:55;94196.00;;;11.40
15575;BMP180;7888;46.748;8.102;2023-04-03T07:59:22;94254.00;;;11.50
15575;BMP180;7888;46.748;8.102;2023-04-03T08:01:48;94230.00;;;11.60
15575;BMP180;7888;46.748;8.102;2023-04-03T08:04:13;94228.00;;;11.70
15575;BMP180;7888;46.748;8.102;2023-04-03T08:06:40;94228.00;;;11.90
15575;BMP180;7888;46.748;8.102;2023-04-03T08:09:05;94238.00;;;12.00
15575;BMP180;7888;46.748;8.102;2023-04-03T08:11:31;94240.00;;;12.10
15575;BMP180;7888;46.748;8.102;2023-04-03T08:13:57;94230.00;;;12.30
15575;BMP180;7888;46.748;8.102;2023-04-03T08:16:24;94232.00;;;12.40
15575;BMP180;7888;46.748;8.102;2023-04-03T08:18:54;94230.00;;;12.30
15575;BMP180;7888;46.748;8.102;2023-04-03T08:21:20;94205.00;;;12.60
15575;BMP180;7888;46.748;8.102;2023-04-03T08:23:51;94236.00;;;12.60
15575;BMP180;7888;46.748;8.102;2023-04-03T08:26:20;94242.00;;;12.70
15575;BMP180;7888;46.748;8.102;2023-04-03T08:28:47;94239.00;;;12.80
15575;BMP180;7888;46.748;8.102;2023-04-03T08:31:17;94244.00;;;12.80
15575;BMP180;7888;46.748;8.102;2023-04-03T08:33:45;94248.00;;;12.90
15575;BMP180;7888;46.748;8.102;2023-04-03T08:36:28;94236.00;;;12.80
15575;BMP180;7888;46.748;8.102;2023-04-03T08:38:56;94241.00;;;13.00
15575;BMP180;7888;46.748;8.102;2023-04-03T08:41:41;94244.00;;;13.00
15575;BMP180;7888;46.748;8.102;2023-04-03T08:44:38;94253.00;;;13.00
15575;BMP180;7888;46.748;8.102;2023-04-03T08:49:56;94241.00;;;13.00
15575;BMP180;7888;46.748;8.102;2023-04-03T08:52:41;94241.00;;;13.00
15575;BMP180;7888;46.748;8.102;2023-04-03T08:55:30;94240.00;;;13.00
15575;BMP180;7888;46.748;8.102;2023-04-03T08:58:09;94236.00;;;13.00
15575;BMP180;7888;46.748;8.102;2023-04-03T09:03:31;94252.00;;;13.00
15575;BMP180;7888;46.748;8.102;2023-04-03T09:11:31;94263.00;;;13.10
15575;BMP180;7888;46.748;8.102;2023-04-03T09:14:13;94260.00;;;13.10
15575;BMP180;7888;46.748;8.102;2023-04-03T09:17:03;94256.00;;;13.10
15575;BMP180;7888;46.748;8.102;2023-04-03T09:19:41;94256.00;;;13.20
15575;BMP180;7888;46.748;8.102;2023-04-03T09:22:21;94252.00;;;13.20
15575;BMP180;7888;46.748;8.102;2023-04-03T09:25:03;94263.00;;;13.20
15575;BMP180;7888;46.748;8.102;2023-04-03T09:27:31;94261.00;;;13.40
15575;BMP180;7888;46.748;8.102;2023-04-03T09:29:57;94252.00;;;13.40
15575;BMP180;7888;46.748;8.102;2023-04-03T09:32:33;94258.00;;;13.60
15575;BMP180;7888;46.748;8.102;2023-04-03T09:37:47;94248.00;;;13.90
15575;BMP180;7888;46.748;8.102;2023-04-03T09:42:57;94267.00;;;14.20
15575;BMP180;7888;46.748;8.102;2023-04-03T09:45:31;94264.00;;;14.20
15575;BMP180;7888;46.748;8.102;2023-04-03T09:50:57;94265.00;;;14.40
15575;BMP180;7888;46.748;8.102;2023-04-03T09:53:39;94279.00;;;14.50
15575;BMP180;7888;46.748;8.102;2023-04-03T09:56:30;94248.00;;;14.50
15575;BMP180;7888;46.748;8.102;2023-04-03T10:04:17;94283.00;;;14.80
15575;BMP180;7888;46.748;8.102;2023-04-03T10:06:49;94280.00;;;14.90
15575;BMP180;7888;46.748;8.102;2023-04-03T10:09:27;94277.00;;;15.00
15575;BMP180;7888;46.748;8.102;2023-04-03T10:12:10;94280.00;;;15.10
15575;BMP180;7888;46.748;8.102;2023-04-03T10:15:01;94268.00;;;15.10
15575;BMP180;7888;46.748;8.102;2023-04-03T10:17:57;94279.00;;;15.10
15575;BMP180;7888;46.748;8.102;2023-04-03T10:20:43;94265.00;;;15.10
15575;BMP180;7888;46.748;8.102;2023-04-03T10:23:21;94287.00;;;15.10
15575;BMP180;7888;46.748;8.102;2023-04-03T10:26:43;94285.00;;;15.20
15575;BMP180;7888;46.748;8.102;2023-04-03T10:34:44;94274.00;;;15.30
15575;BMP180;7888;46.748;8.102;2023-04-03T10:37:26;94277.00;;;15.40
15575;BMP180;7888;46.748;8.102;2023-04-03T10:40:01;94280.00;;;15.50
15575;BMP180;7888;46.748;8.102;2023-04-03T10:42:50;94291.00;;;15.50
15575;BMP180;7888;46.748;8.102;2023-04-03T10:45:51;94291.00;;;15.40
15575;BMP180;7888;46.748;8.102;2023-04-03T10:51:16;94284.00;;;15.50
15575;BMP180;7888;46.748;8.102;2023-04-03T10:56:44;94287.00;;;15.50
15575;BMP180;7888;46.748;8.102;2023-04-03T10:59:33;94285.00;;;15.50
15575;BMP180;7888;46.748;8.102;2023-04-03T11:04:44;94288.00;;;15.50
15575;BMP180;7888;46.748;8.102;2023-04-03T11:07:24;94287.00;;;15.40
15575;BMP180;7888;46.748;8.102;2023-04-03T11:10:02;94285.00;;;15.30
15575;BMP180;7888;46.748;8.102;2023-04-03T11:15:32;94276.00;;;15.30
15575;BMP180;7888;46.748;8.102;2023-04-03T11:18:11;94287.00;;;15.20
15575;BMP180;7888;46.748;8.102;2023-04-03T11:20:46;94264.00;;;15.10
15575;BMP180;7888;46.748;8.102;2023-04-03T11:23:24;94280.00;;;15.10
15575;BMP180;7888;46.748;8.102;2023-04-03T11:25:59;94267.00;;;14.90
15575;BMP180;7888;46.748;8.102;2023-04-03T11:28:27;94274.00;;;14.80
15575;BMP180;7888;46.748;8.102;2023-04-03T11:31:11;94257.00;;;14.70
15575;BMP180;7888;46.748;8.102;2023-04-03T11:34:49;94266.00;;;14.70
15575;BMP180;7888;46.748;8.102;2023-04-03T11:36:48;94273.00;;;14.50
15575;BMP180;7888;46.748;8.102;2023-04-03T11:39:35;94269.00;;;14.50
15575;BMP180;7888;46.748;8.102;2023-04-03T11:42:33;94276.00;;;14.50
15575;BMP180;7888;46.748;8.102;2023-04-03T11:47:56;94244.00;;;14.60
15575;BMP180;7888;46.748;8.102;2023-04-03T12:00:52;94241.00;;;14.50
15575;BMP180;7888;46.748;8.102;2023-04-03T12:13:36;94241.00;;;14.60
15575;BMP180;7888;46.748;8.102;2023-04-03T12:16:05;94240.00;;;14.50
15575;BMP180;7888;46.748;8.102;2023-04-03T12:47:33;94230.00;;;14.30
15575;BMP180;7888;46.748;8.102;2023-04-03T12:50:13;94236.00;;;14.30
15575;BMP180;7888;46.748;8.102;2023-04-03T12:53:31;94230.00;;;14.10
15575;BMP180;7888;46.748;8.102;2023-04-03T12:58:51;94241.00;;;14.00
15575;BMP180;7888;46.748;8.102;2023-04-03T13:01:21;94236.00;;;14.10
15575;BMP180;7888;46.748;8.102;2023-04-03T13:03:55;94190.00;;;14.00
15575;BMP180;7888;46.748;8.102;2023-04-03T13:06:39;94222.00;;;13.90
15575;BMP180;7888;46.748;8.102;2023-04-03T13:09:19;94220.00;;;13.80
15575;BMP180;7888;46.748;8.102;2023-04-03T13:11:59;94214.00;;;13.70
15575;BMP180;7888;46.748;8.102;2023-04-03T13:14:28;94217.00;;;13.60
15575;BMP180;7888;46.748;8.102;2023-04-03T13:17:10;94201.00;;;13.50
15575;BMP180;7888;46.748;8.102;2023-04-03T13:19:38;94226.00;;;13.40
15575;BMP180;7888;46.748;8.102;2023-04-03T13:22:30;94224.00;;;13.30
15575;BMP180;7888;46.748;8.102;2023-04-03T13:25:03;94235.00;;;13.30
15575;BMP180;7888;46.748;8.102;2023-04-03T13:27:32;94225.00;;;13.30
15575;BMP180;7888;46.748;8.102;2023-04-03T13:30:00;94220.00;;;13.30
15575;BMP180;7888;46.748;8.102;2023-04-03T13:32:30;94219.00;;;13.30
15575;BMP180;7888;46.748;8.102;2023-04-03T13:34:57;94209.00;;;13.30
15575;BMP180;7888;46.748;8.102;2023-04-03T13:37:32;94210.00;;;13.20
15575;BMP180;7888;46.748;8.102;2023-04-03T13:40:19;94219.00;;;13.30
15575;BMP180;7888;46.748;8.102;2023-04-03T13:42:45;94205.00;;;13.30
15575;BMP180;7888;46.748;8.102;2023-04-03T13:45:21;94214.00;;;13.20
15575;BMP180;7888;46.748;8.102;2023-04-03T13:47:52;94214.00;;;13.30
15575;BMP180;7888;46.748;8.102;2023-04-03T13:50:25;94207.00;;;13.30
15575;BMP180;7888;46.748;8.102;2023-04-03T13:53:11;94213.00;;;13.20
15575;BMP180;7888;46.748;8.102;2023-04-03T13:58:26;94211.00;;;13.30
15575;BMP180;7888;46.748;8.102;2023-04-03T14:01:19;94203.00;;;13.30
15575;BMP180;7888;46.748;8.102;2023-04-03T14:04:01;94208.00;;;13.30
15575;BMP180;7888;46.748;8.102;2023-04-03T14:06:29;94210.00;;;13.20
15575;BMP180;7888;46.748;8.102;2023-04-03T14:08:55;94214.00;;;13.20
15575;BMP180;7888;46.748;8.102;2023-04-03T14:11:28;94219.00;;;13.00
15575;BMP180;7888;46.748;8.102;2023-04-03T14:14:13;94219.00;;;13.00
15575;BMP180;7888;46.748;8.102;2023-04-03T14:16:44;94214.00;;;13.10
15575;BMP180;7888;46.748;8.102;2023-04-03T14:19:30;94194.00;;;13.10
15575;BMP180;7888;46.748;8.102;2023-04-03T14:21:59;94196.00;;;13.20
15575;BMP180;7888;46.748;8.102;2023-04-03T14:24:26;94204.00;;;13.20
15575;BMP180;7888;46.748;8.102;2023-04-03T14:26:54;94209.00;;;13.10
15575;BMP180;7888;46.748;8.102;2023-04-03T14:29:21;94201.00;;;13.00
15575;BMP180;7888;46.748;8.102;2023-04-03T14:31:49;94204.00;;;13.00
15575;BMP180;7888;46.748;8.102;2023-04-03T14:34:15;94199.00;;;12.90
15575;BMP180;7888;46.748;8.102;2023-04-03T14:36:43;94182.00;;;12.80
15575;BMP180;7888;46.748;8.102;2023-04-03T14:39:18;94199.00;;;12.80
15575;BMP180;7888;46.748;8.102;2023-04-03T14:41:44;94195.00;;;12.70
15575;BMP180;7888;46.748;8.102;2023-04-03T14:44:10;94199.00;;;12.60
15575;BMP180;7888;46.748;8.102;2023-04-03T14:46:41;94187.00;;;12.60
15575;BMP180;7888;46.748;8.102;2023-04-03T14:49:22;94193.00;;;12.50
15575;BMP180;7888;46.748;8.102;2023-04-03T14:51:49;94169.00;;;12.50
15575;BMP180;7888;46.748;8.102;2023-04-03T14:54:22;94197.00;;;12.40
15575;BMP180;7888;46.748;8.102;2023-04-03T14:56:58;94186.00;;;12.30
15575;BMP180;7888;46.748;8.102;2023-04-03T14:59:31;94189.00;;;12.30
15575;BMP180;7888;46.748;8.102;2023-04-03T15:01:58;94188.00;;;12.30
15575;BMP180;7888;46.748;8.102;2023-04-03T15:04:24;94184.00;;;12.20
15575;BMP180;7888;46.748;8.102;2023-04-03T15:06:51;94189.00;;;12.20
15575;BMP180;7888;46.748;8.102;2023-04-03T15:09:25;94190.00;;;12.10
15575;BMP180;7888;46.748;8.102;2023-04-03T15:11:53;94192.00;;;12.10
15575;BMP180;7888;46.748;8.102;2023-04-03T15:14:20;94168.00;;;12.00
15575;BMP180;7888;46.748;8.102;2023-04-03T15:16:46;94149.00;;;11.90
15575;BMP180;7888;46.748;8.102;2023-04-03T15:19:12;94186.00;;;11.90
15575;BMP180;7888;46.748;8.102;2023-04-03T15:21:39;94178.00;;;11.90
15575;BMP180;7888;46.748;8.102;2023-04-03T15:24:05;94181.00;;;11.90
15575;BMP180;7888;46.748;8.102;2023-04-03T15:26:32;94157.00;;;11.90
15575;BMP180;7888;46.748;8.102;2023-04-03T15:28:58;94165.00;;;11.90
15575;BMP180;7888;46.748;8.102;2023-04-03T15:31:24;94186.00;;;11.90
15575;BMP180;7888;46.748;8.102;2023-04-03T15:33:50;94162.00;;;11.90
15575;BMP180;7888;46.748;8.102;2023-04-03T15:36:16;94190.00;;;11.90
15575;BMP180;7888;46.748;8.102;2023-04-03T15:38:41;94166.00;;;11.90
15575;BMP180;7888;46.748;8.102;2023-04-03T15:41:07;94183.00;;;11.90
15575;BMP180;7888;46.748;8.102;2023-04-03T15:43:33;94178.00;;;11.90
15575;BMP180;7888;46.748;8.102;2023-04-03T15:46:01;94162.00;;;11.90
15575;BMP180;7888;46.748;8.102;2023-04-03T15:48:28;94180.00;;;11.90
15575;BMP180;7888;46.748;8.102;2023-04-03T15:50:54;94179.00;;;11.90
15575;BMP180;7888;46.748;8.102;2023-04-03T15:53:20;94172.00;;;11.90
15575;BMP180;7888;46.748;8.102;2023-04-03T15:55:46;94178.00;;;11.90
15575;BMP180;7888;46.748;8.102;2023-04-03T15:58:12;94171.00;;;12.00
15575;BMP180;7888;46.748;8.102;2023-04-03T16:00:38;94138.00;;;12.00
15575;BMP180;7888;46.748;8.102;2023-04-03T16:03:10;94159.00;;;11.90
15575;BMP180;7888;46.748;8.102;2023-04-03T16:05:38;94127.00;;;12.00
15575;BMP180;7888;46.748;8.102;2023-04-03T16:08:06;94181.00;;;12.00
15575;BMP180;7888;46.748;8.102;2023-04-03T16:10:34;94169.00;;;12.00
15575;BMP180;7888;46.748;8.102;2023-04-03T16:13:01;94177.00;;;11.90
15575;BMP180;7888;46.748;8.102;2023-04-03T16:15:27;94177.00;;;11.70
15575;BMP180;7888;46.748;8.102;2023-04-03T16:17:54;94165.00;;;11.90
15575;BMP180;7888;46.748;8.102;2023-04-03T16:20:20;94173.00;;;11.90
15575;BMP180;7888;46.748;8.102;2023-04-03T16:22:48;94190.00;;;11.90
15575;BMP180;7888;46.748;8.102;2023-04-03T16:25:15;94160.00;;;11.90
15575;BMP180;7888;46.748;8.102;2023-04-03T16:27:41;94183.00;;;11.90
15575;BMP180;7888;46.748;8.102;2023-04-03T16:30:09;94162.00;;;11.90
15575;BMP180;7888;46.748;8.102;2023-04-03T16:32:37;94185.00;;;11.90
15575;BMP180;7888;46.748;8.102;2023-04-03T16:35:05;94176.00;;;11.80
15575;BMP180;7888;46.748;8.102;2023-04-03T16:37:31;94172.00;;;11.80
15575;BMP180;7888;46.748;8.102;2023-04-03T16:39:57;94185.00;;;11.70
15575;BMP180;7888;46.748;8.102;2023-04-03T16:42:25;94182.00;;;11.60
15575;BMP180;7888;46.748;8.102;2023-04-03T16:44:51;94182.00;;;11.60
15575;BMP180;7888;46.748;8.102;2023-04-03T16:47:17;94180.00;;;11.40